createdAt,value
2022-11-05T00:01:11.474Z,13.43
2022-11-05T00:03:56.883Z,14.10
2022-11-05T00:06:42.435Z,13.77
2022-11-05T00:09:30.537Z,13.45
2022-11-05T00:12:23.365Z,13.38
2022-11-05T00:15:11.032Z,13.99
2022-11-05T00:17:38.536Z,13.96
2022-11-05T00:20:06.535Z,13.81
2022-11-05T00:22:51.789Z,14.04
2022-11-05T00:25:20.312Z,13.90
2022-11-05T00:27:49.876Z,13.38
2022-11-05T00:30:23.043Z,13.94
2022-11-05T00:32:51.380Z,12.87
2022-11-05T00:35:23.299Z,13.77
2022-11-05T00:37:50.732Z,13.89
2022-11-05T00:40:20.745Z,13.69
2022-11-05T00:43:06.152Z,13.85
2022-11-05T00:45:33.238Z,13.87
2022-11-05T00:48:18.673Z,13.77
2022-11-05T00:50:45.454Z,13.85
2022-11-05T00:53:12.586Z,13.71
2022-11-05T00:55:42.088Z,13.85
2022-11-05T00:58:14.252Z,13.73
2022-11-05T01:00:43.589Z,13.52
2022-11-05T01:03:13.303Z,13.84
2022-11-05T01:05:46.629Z,13.14
2022-11-05T01:08:14.790Z,13.78
2022-11-05T01:10:50.024Z,13.81
2022-11-05T01:13:23.286Z,13.82
2022-11-05T01:15:51.063Z,13.63
2022-11-05T01:18:19.314Z,13.90
2022-11-05T01:20:50.544Z,14.01
2022-11-05T01:23:24.869Z,13.28
2022-11-05T01:25:51.491Z,13.73
2022-11-05T01:28:18.209Z,13.76
2022-11-05T01:30:44.774Z,13.65
2022-11-05T01:33:11.685Z,13.29
2022-11-05T01:35:39.282Z,13.57
2022-11-05T01:38:09.086Z,13.64
2022-11-05T01:40:42.596Z,13.35
2022-11-05T01:43:16.663Z,13.63
2022-11-05T01:45:48.800Z,13.40
2022-11-05T01:48:21.354Z,13.71
2022-11-05T01:51:01.268Z,13.75
2022-11-05T01:53:44.822Z,13.66
2022-11-05T01:56:27.712Z,13.69
2022-11-05T01:59:06.582Z,13.76
2022-11-05T02:01:37.018Z,13.74
2022-11-05T02:04:08.633Z,12.37
2022-11-05T02:06:38.340Z,13.63
2022-11-05T02:09:09.209Z,13.65
2022-11-05T02:11:37.251Z,13.76
2022-11-05T02:14:04.346Z,13.66
2022-11-05T02:16:41.471Z,13.72
2022-11-05T02:19:48.817Z,13.68
2022-11-05T02:22:43.202Z,13.80
2022-11-05T02:25:37.509Z,13.58
2022-11-05T02:28:26.340Z,13.21
2022-11-05T02:31:07.738Z,13.65
2022-11-05T02:34:05.593Z,13.66
2022-11-05T02:36:38.088Z,13.67
2022-11-05T02:39:40.318Z,13.43
2022-11-05T02:42:06.854Z,13.61
2022-11-05T02:44:59.239Z,13.39
2022-11-05T02:47:42.537Z,13.43
2022-11-05T02:50:36.485Z,13.67
2022-11-05T02:53:19.349Z,13.54
2022-11-05T02:56:22.929Z,13.10
2022-11-05T02:58:49.643Z,13.32
2022-11-05T03:01:19.636Z,13.72
2022-11-05T03:03:51.410Z,13.29
2022-11-05T03:06:48.685Z,12.18
2022-11-05T03:09:57.464Z,13.52
2022-11-05T03:13:13.298Z,13.56
2022-11-05T03:16:02.460Z,13.37
2022-11-05T03:18:46.217Z,13.30
2022-11-05T03:21:22.099Z,13.42
2022-11-05T03:23:56.545Z,13.29
2022-11-05T03:26:32.022Z,13.46
2022-11-05T03:29:17.132Z,13.45
2022-11-05T03:31:47.843Z,13.33
2022-11-05T03:34:18.189Z,13.24
2022-11-05T03:36:52.929Z,13.09
2022-11-05T03:39:30.657Z,13.37
2022-11-05T03:41:59.240Z,13.38
2022-11-05T03:44:32.878Z,13.43
2022-11-05T03:47:19.660Z,13.21
2022-11-05T03:50:00.196Z,13.22
2022-11-05T03:52:33.623Z,13.20
2022-11-05T03:55:00.515Z,12.55
2022-11-05T03:57:35.388Z,13.28
2022-11-05T04:00:07.957Z,13.48
2022-11-05T04:02:35.062Z,13.57
2022-11-05T04:05:02.165Z,12.63
2022-11-05T04:07:47.561Z,12.80
2022-11-05T04:10:32.990Z,13.49
2022-11-05T04:13:18.620Z,13.46
2022-11-05T04:16:04.838Z,12.93
2022-11-05T04:18:32.994Z,13.27
2022-11-05T04:21:23.643Z,13.48
2022-11-05T04:24:09.202Z,12.66
2022-11-05T04:26:39.498Z,13.34
2022-11-05T04:29:27.264Z,13.42
2022-11-05T04:31:59.536Z,13.04
2022-11-05T04:34:26.403Z,13.36
2022-11-05T04:36:53.419Z,13.28
2022-11-05T04:39:20.991Z,13.25
2022-11-05T04:41:51.722Z,13.30
2022-11-05T04:44:18.547Z,13.33
2022-11-05T04:46:48.443Z,13.38
2022-11-05T04:49:15.210Z,12.81
2022-11-05T04:51:42.066Z,13.53
2022-11-05T04:54:08.979Z,12.92
2022-11-05T04:56:35.737Z,13.44
2022-11-05T04:59:02.408Z,13.66
2022-11-05T05:01:29.238Z,13.50
2022-11-05T05:03:55.954Z,13.42
2022-11-05T05:06:23.279Z,13.35
2022-11-05T05:08:51.570Z,13.47
2022-11-05T05:11:21.171Z,13.55
2022-11-05T05:13:50.919Z,13.55
2022-11-05T05:16:27.864Z,13.34
2022-11-05T05:18:55.097Z,13.46
2022-11-05T05:21:41.581Z,13.64
2022-11-05T05:24:15.314Z,12.80
2022-11-05T05:26:45.063Z,13.56
2022-11-05T05:29:12.136Z,13.55
2022-11-05T05:31:42.576Z,13.46
2022-11-05T05:34:15.213Z,13.60
2022-11-05T05:36:41.932Z,13.72
2022-11-05T05:39:11.198Z,13.26
2022-11-05T05:41:38.219Z,12.97
2022-11-05T05:44:06.640Z,13.47
2022-11-05T05:46:33.529Z,13.87
2022-11-05T05:49:00.298Z,13.06
2022-11-05T05:51:27.058Z,13.55
2022-11-05T05:53:56.552Z,13.57
2022-11-05T05:56:24.908Z,13.23
2022-11-05T05:58:51.904Z,13.38
2022-11-05T06:01:21.543Z,13.30
2022-11-05T06:03:49.378Z,13.51
2022-11-05T06:06:20.016Z,13.51
2022-11-05T06:08:47.705Z,13.19
2022-11-05T06:11:14.771Z,13.76
2022-11-05T06:13:41.962Z,13.62
2022-11-05T06:16:09.721Z,13.60
2022-11-05T06:18:37.487Z,13.01
2022-11-05T06:21:06.265Z,13.51
2022-11-05T06:23:34.526Z,13.43
2022-11-05T06:26:03.155Z,13.79
2022-11-05T06:28:30.085Z,12.45
2022-11-05T06:30:57.944Z,13.25
2022-11-05T06:33:27.033Z,12.31
2022-11-05T06:35:54.991Z,13.68
2022-11-05T06:38:21.632Z,13.65
2022-11-05T06:40:49.858Z,13.44
2022-11-05T06:43:19.587Z,13.29
2022-11-05T06:45:51.312Z,13.70
2022-11-05T06:48:18.016Z,13.72
2022-11-05T06:50:47.688Z,13.58
2022-11-05T06:53:17.454Z,13.56
2022-11-05T06:55:50.485Z,13.20
2022-11-05T06:58:17.097Z,13.80
2022-11-05T07:00:43.940Z,13.73
2022-11-05T07:03:12.272Z,13.27
2022-11-05T07:05:45.330Z,13.76
2022-11-05T07:08:15.917Z,13.86
2022-11-05T07:10:44.299Z,13.71
2022-11-05T07:13:11.377Z,13.81
2022-11-05T07:15:38.840Z,13.80
2022-11-05T07:18:08.670Z,13.78
2022-11-05T07:20:35.860Z,13.88
2022-11-05T07:23:04.261Z,13.95
2022-11-05T07:25:32.764Z,13.49
2022-11-05T07:27:59.994Z,13.22
2022-11-05T07:30:29.816Z,13.69
2022-11-05T07:33:02.191Z,13.89
2022-11-05T07:35:29.310Z,13.90
2022-11-05T07:37:58.937Z,13.51
2022-11-05T07:40:27.780Z,12.84
2022-11-05T07:43:00.285Z,13.68
2022-11-05T07:45:28.625Z,14.09
2022-11-05T07:48:03.658Z,13.54
2022-11-05T07:50:35.428Z,14.29
2022-11-05T07:53:11.720Z,14.11
2022-11-05T07:55:43.952Z,14.35
2022-11-05T07:58:11.071Z,14.32
2022-11-05T08:00:37.823Z,14.37
2022-11-05T08:03:12.498Z,14.38
2022-11-05T08:05:41.401Z,14.53
2022-11-05T08:08:09.638Z,14.01
2022-11-05T08:10:42.701Z,14.67
2022-11-05T08:13:10.508Z,14.60
2022-11-05T08:15:37.439Z,14.05
2022-11-05T08:18:07.010Z,14.65
2022-11-05T08:20:34.982Z,14.55
2022-11-05T08:23:05.340Z,14.76
2022-11-05T08:25:35.950Z,14.51
2022-11-05T08:28:08.784Z,14.21
2022-11-05T08:30:36.347Z,14.30
2022-11-05T08:33:06.880Z,14.92
2022-11-05T08:35:35.393Z,15.01
2022-11-05T08:38:04.360Z,14.84
2022-11-05T08:40:33.565Z,15.07
2022-11-05T08:43:04.723Z,13.71
2022-11-05T08:45:33.175Z,15.09
2022-11-05T08:48:09.049Z,14.96
2022-11-05T08:50:37.352Z,15.12
2022-11-05T08:53:11.629Z,15.24
2022-11-05T08:55:41.131Z,15.04
2022-11-05T08:58:12.686Z,15.08
2022-11-05T09:00:43.580Z,14.62
2022-11-05T09:03:10.850Z,14.87
2022-11-05T09:05:42.580Z,14.53
2022-11-05T09:08:14.864Z,14.88
2022-11-05T09:10:43.797Z,14.36
2022-11-05T09:13:18.204Z,15.14
2022-11-05T09:15:48.683Z,15.01
2022-11-05T09:18:19.618Z,15.27
2022-11-05T09:20:46.666Z,15.27
2022-11-05T09:23:19.647Z,15.33
2022-11-05T09:25:49.429Z,15.28
2022-11-05T09:28:21.368Z,14.61
2022-11-05T09:30:50.859Z,15.48
2022-11-05T09:33:21.652Z,14.84
2022-11-05T09:35:48.864Z,15.38
2022-11-05T09:38:15.906Z,15.44
2022-11-05T09:41:21.521Z,15.57
2022-11-05T09:43:56.682Z,15.67
2022-11-05T09:46:30.401Z,15.65
2022-11-05T09:49:08.243Z,14.90
2022-11-05T09:51:37.232Z,15.75
2022-11-05T09:54:05.645Z,15.98
2022-11-05T09:56:36.976Z,15.70
2022-11-05T09:59:16.722Z,16.14
2022-11-05T10:01:45.310Z,16.18
2022-11-05T10:04:21.285Z,15.93
2022-11-05T10:07:00.978Z,16.22
2022-11-05T10:09:48.272Z,15.95
2022-11-05T10:12:32.377Z,16.28
2022-11-05T10:15:27.459Z,16.46
2022-11-05T10:18:05.068Z,16.71
2022-11-05T10:20:46.841Z,17.00
2022-11-05T10:23:22.001Z,17.05
2022-11-05T10:25:55.190Z,17.27
2022-11-05T10:28:33.542Z,17.58
2022-11-05T10:31:05.248Z,17.44
2022-11-05T10:33:35.054Z,17.96
2022-11-05T10:36:15.253Z,17.86
2022-11-05T10:38:41.997Z,17.79
2022-11-05T10:41:46.407Z,18.29
2022-11-05T10:44:36.562Z,18.42
2022-11-05T10:47:12.653Z,18.05
2022-11-05T10:49:59.065Z,17.33
2022-11-05T10:52:42.022Z,18.19
2022-11-05T10:55:37.542Z,18.29
2022-11-05T10:58:29.165Z,18.23
2022-11-05T11:00:55.882Z,18.11
2022-11-05T11:03:44.835Z,18.00
2022-11-05T11:06:29.911Z,16.64
2022-11-05T11:09:00.071Z,17.58
2022-11-05T11:11:37.605Z,17.80
2022-11-05T11:14:24.551Z,17.71
2022-11-05T11:17:15.111Z,17.70
2022-11-05T11:19:41.845Z,17.64
2022-11-05T11:22:14.530Z,17.63
2022-11-05T11:24:50.899Z,17.50
2022-11-05T11:27:27.569Z,17.37
2022-11-05T11:30:00.379Z,17.20
2022-11-05T11:32:36.101Z,16.94
2022-11-05T11:35:06.339Z,17.29
2022-11-05T11:37:42.301Z,17.07
2022-11-05T11:40:22.692Z,17.24
2022-11-05T11:42:58.038Z,17.44
2022-11-05T11:45:38.471Z,17.33
2022-11-05T11:48:07.243Z,17.34
2022-11-05T11:50:33.976Z,17.54
2022-11-05T11:53:36.378Z,17.12
2022-11-05T11:56:13.991Z,17.26
2022-11-05T11:58:54.151Z,17.08
2022-11-05T12:01:36.487Z,17.24
2022-11-05T12:04:46.674Z,17.13
2022-11-05T12:07:21.197Z,17.01
2022-11-05T12:10:15.989Z,15.96
2022-11-05T12:13:16.630Z,17.27
2022-11-05T12:15:52.262Z,17.09
2022-11-05T12:18:36.170Z,17.28
2022-11-05T12:21:52.448Z,17.12
2022-11-05T12:25:11.715Z,17.33
2022-11-05T12:27:38.258Z,17.37
2022-11-05T12:30:25.696Z,16.99
2022-11-05T12:33:21.819Z,17.38
2022-11-05T12:35:57.915Z,17.15
2022-11-05T12:38:27.786Z,17.36
2022-11-05T12:41:32.056Z,17.34
2022-11-05T12:44:21.160Z,17.33
2022-11-05T12:47:40.538Z,17.21
2022-11-05T12:50:19.598Z,17.32
2022-11-05T12:53:10.347Z,17.31
2022-11-05T12:55:44.127Z,17.29
2022-11-05T12:58:26.274Z,17.32
2022-11-05T13:01:02.003Z,17.34
2022-11-05T13:03:31.950Z,17.35
2022-11-05T13:06:06.953Z,17.14
2022-11-05T13:08:39.971Z,17.30
2022-11-05T13:11:39.013Z,17.01
2022-11-05T13:14:14.203Z,17.26
2022-11-05T13:16:47.328Z,17.30
2022-11-05T13:19:21.446Z,16.68
2022-11-05T13:21:54.817Z,17.21
2022-11-05T13:24:29.073Z,17.33
2022-11-05T13:27:24.974Z,17.30
2022-11-05T13:30:04.614Z,16.95
2022-11-05T13:32:38.171Z,17.28
2022-11-05T13:35:14.264Z,17.11
2022-11-05T13:38:03.555Z,17.28
2022-11-05T13:40:45.007Z,17.21
2022-11-05T13:43:23.732Z,17.28
2022-11-05T13:46:13.126Z,17.11
2022-11-05T13:49:05.272Z,17.20
2022-11-05T13:51:50.618Z,17.18
2022-11-05T13:55:20.130Z,17.24
2022-11-05T13:58:01.995Z,17.30
2022-11-05T14:00:31.035Z,17.22
2022-11-05T14:03:03.408Z,17.14
2022-11-05T14:05:38.268Z,17.33
2022-11-05T14:08:13.058Z,17.30
2022-11-05T14:10:43.529Z,17.05
2022-11-05T14:13:40.860Z,17.36
2022-11-05T14:16:18.440Z,17.22
2022-11-05T14:18:46.380Z,17.38
2022-11-05T14:21:45.342Z,17.35
2022-11-05T14:24:26.071Z,17.00
2022-11-05T14:27:02.065Z,17.30
2022-11-05T14:29:47.004Z,17.27
2022-11-05T14:32:19.905Z,16.02
2022-11-05T14:35:04.671Z,17.13
2022-11-05T14:37:39.049Z,17.24
2022-11-05T14:40:27.742Z,17.24
2022-11-05T14:43:03.411Z,16.77
2022-11-05T14:45:40.868Z,16.98
2022-11-05T14:48:43.604Z,16.93
2022-11-05T14:51:25.003Z,16.82
2022-11-05T14:54:01.520Z,16.87
2022-11-05T14:56:28.428Z,17.11
2022-11-05T14:59:31.503Z,17.13
2022-11-05T15:02:04.447Z,17.09
2022-11-05T15:04:37.368Z,17.07
2022-11-05T15:07:04.072Z,17.07
2022-11-05T15:09:59.831Z,17.07
2022-11-05T15:12:46.785Z,16.86
2022-11-05T15:15:23.153Z,16.99
2022-11-05T15:18:25.739Z,17.04
2022-11-05T15:21:00.163Z,17.00
2022-11-05T15:23:35.857Z,16.77
2022-11-05T15:26:16.104Z,16.86
2022-11-05T15:28:46.754Z,16.92
2022-11-05T15:31:13.309Z,16.90
2022-11-05T15:33:46.829Z,16.23
2022-11-05T15:36:31.165Z,16.75
2022-11-05T15:39:27.848Z,16.29
2022-11-05T15:41:46.962Z,16.44
2022-11-05T15:44:31.650Z,16.52
2022-11-05T15:47:18.562Z,16.60
2022-11-05T15:49:52.085Z,16.29
2022-11-05T15:52:22.105Z,16.45
2022-11-05T15:55:13.235Z,16.60
2022-11-05T15:57:57.471Z,16.43
2022-11-05T16:00:26.894Z,16.49
2022-11-05T16:03:23.196Z,16.18
2022-11-05T16:05:53.449Z,16.30
2022-11-05T16:08:29.224Z,16.31
2022-11-05T16:11:00.986Z,16.17
2022-11-05T16:13:30.328Z,16.21
2022-11-05T16:16:00.381Z,16.15
2022-11-05T16:18:43.586Z,15.99
2022-11-05T16:21:18.334Z,15.81
2022-11-05T16:23:57.392Z,15.69
2022-11-05T16:27:01.798Z,15.67
2022-11-05T16:29:40.739Z,15.79
2022-11-05T16:32:17.291Z,15.68
2022-11-05T16:34:59.232Z,15.76
2022-11-05T16:37:27.997Z,15.72
2022-11-05T16:40:10.264Z,15.60
2022-11-05T16:42:41.829Z,15.58
2022-11-05T16:45:12.818Z,15.45
2022-11-05T16:47:40.013Z,15.40
2022-11-05T16:50:15.540Z,15.39
2022-11-05T16:52:47.574Z,15.23
2022-11-05T16:55:15.899Z,15.39
2022-11-05T16:57:45.835Z,15.33
2022-11-05T17:03:04.329Z,15.31
2022-11-05T17:05:31.586Z,15.16
2022-11-05T17:08:01.114Z,15.06
2022-11-05T17:10:29.640Z,15.17
2022-11-05T17:12:56.699Z,15.21
2022-11-05T17:15:31.485Z,15.01
2022-11-05T17:17:59.890Z,15.02
2022-11-05T17:20:38.559Z,14.97
2022-11-05T17:23:14.980Z,13.53
2022-11-05T17:25:45.890Z,14.89
2022-11-05T17:28:16.035Z,14.88
2022-11-05T17:30:49.241Z,14.95
2022-11-05T17:33:20.327Z,15.02
2022-11-05T17:35:49.048Z,14.92
2022-11-05T17:38:15.921Z,14.83
2022-11-05T17:40:48.575Z,14.84
2022-11-05T17:43:16.061Z,14.67
2022-11-05T17:45:47.901Z,14.77
2022-11-05T17:48:16.211Z,14.57
2022-11-05T17:50:46.693Z,14.69
2022-11-05T17:53:15.303Z,14.60
2022-11-05T17:55:45.305Z,14.49
2022-11-05T17:58:16.193Z,14.60
2022-11-05T18:00:44.539Z,14.55
2022-11-05T18:03:12.623Z,14.36
2022-11-05T18:05:40.778Z,14.49
2022-11-05T18:08:11.898Z,14.09
2022-11-05T18:10:39.675Z,14.48
2022-11-05T18:13:11.213Z,13.85
2022-11-05T18:15:43.129Z,14.48
2022-11-05T18:18:10.171Z,14.45
2022-11-05T18:20:37.717Z,14.26
2022-11-05T18:23:35.587Z,14.30
2022-11-05T18:26:05.606Z,14.19
2022-11-05T18:28:32.788Z,13.88
2022-11-05T18:30:59.403Z,14.09
2022-11-05T18:33:26.402Z,14.06
2022-11-05T18:35:57.888Z,14.24
2022-11-05T18:38:24.604Z,14.28
2022-11-05T18:40:51.564Z,14.27
2022-11-05T18:43:19.530Z,14.37
2022-11-05T18:45:46.338Z,14.45
2022-11-05T18:48:13.995Z,14.54
2022-11-05T18:50:43.055Z,14.35
2022-11-05T18:53:12.695Z,13.84
2022-11-05T18:55:41.018Z,14.15
2022-11-05T18:58:11.148Z,14.38
2022-11-05T19:00:45.317Z,14.26
2022-11-05T19:03:12.947Z,14.23
2022-11-05T19:05:40.778Z,14.16
2022-11-05T19:08:07.677Z,13.86
2022-11-05T19:10:34.391Z,13.32
2022-11-05T19:13:01.872Z,14.07
2022-11-05T19:15:29.201Z,14.29
2022-11-05T19:17:56.155Z,14.09
2022-11-05T19:20:25.248Z,14.05
2022-11-05T19:22:52.331Z,14.07
2022-11-05T19:25:19.439Z,13.99
2022-11-05T19:27:49.058Z,13.88
2022-11-05T19:30:16.021Z,13.80
2022-11-05T19:32:43.257Z,13.75
2022-11-05T19:35:10.967Z,13.16
2022-11-05T19:37:38.272Z,13.63
2022-11-05T19:40:05.501Z,13.59
2022-11-05T19:42:35.690Z,13.59
2022-11-05T19:45:23.169Z,13.69
2022-11-05T19:47:49.304Z,13.61
2022-11-05T19:50:16.080Z,13.51
2022-11-05T19:52:42.766Z,13.26
2022-11-05T19:55:12.271Z,13.43
2022-11-05T19:57:39.233Z,13.50
2022-11-05T20:00:06.332Z,13.55
2022-11-05T20:02:33.033Z,13.11
2022-11-05T20:05:02.680Z,13.55
2022-11-05T20:07:33.374Z,13.56
2022-11-05T20:09:59.954Z,13.51
2022-11-05T20:12:27.194Z,13.60
2022-11-05T20:14:54.073Z,13.54
2022-11-05T20:17:21.710Z,13.62
2022-11-05T20:19:48.563Z,13.62
2022-11-05T20:22:15.723Z,13.24
2022-11-05T20:24:43.367Z,13.59
2022-11-05T20:27:10.516Z,12.79
2022-11-05T20:29:37.542Z,13.37
2022-11-05T20:32:04.919Z,13.25
2022-11-05T20:34:33.556Z,13.29
2022-11-05T20:37:00.631Z,13.16
2022-11-05T20:39:30.495Z,12.05
2022-11-05T20:42:00.795Z,13.12
2022-11-05T20:44:28.130Z,12.96
2022-11-05T20:46:54.970Z,12.93
2022-11-05T20:49:25.338Z,12.95
2022-11-05T20:51:52.798Z,12.81
2022-11-05T20:54:20.739Z,12.48
2022-11-05T20:56:48.250Z,12.87
2022-11-05T20:59:14.974Z,12.71
2022-11-05T21:01:41.964Z,12.74
2022-11-05T21:04:08.975Z,12.75
2022-11-05T21:06:37.988Z,12.40
2022-11-05T21:09:08.265Z,12.53
2022-11-05T21:11:58.367Z,12.79
2022-11-05T21:14:25.652Z,12.80
2022-11-05T21:16:53.985Z,12.91
2022-11-05T21:19:25.973Z,12.82
2022-11-05T21:21:52.809Z,12.71
2022-11-05T21:24:20.982Z,12.65
2022-11-05T21:26:51.747Z,12.19
2022-11-05T21:29:24.710Z,12.74
2022-11-05T21:31:52.011Z,12.64
2022-11-05T21:34:19.927Z,12.60
2022-11-05T21:36:48.094Z,12.69
2022-11-05T21:39:15.927Z,12.42
2022-11-05T21:41:48.654Z,12.45
2022-11-05T21:44:17.219Z,12.43
2022-11-05T21:46:45.307Z,12.38
2022-11-05T21:49:14.804Z,12.28
2022-11-05T21:52:00.366Z,12.32
2022-11-05T21:54:46.718Z,12.15
2022-11-05T21:57:40.745Z,12.26
2022-11-05T22:00:10.383Z,12.55
2022-11-05T22:02:37.500Z,12.68
2022-11-05T22:05:08.617Z,12.34
2022-11-05T22:07:40.689Z,12.81
2022-11-05T22:10:15.902Z,12.71
2022-11-05T22:12:43.841Z,12.50
2022-11-05T22:15:10.990Z,12.49
2022-11-05T22:17:40.430Z,12.39
2022-11-05T22:20:11.115Z,11.98
2022-11-05T22:22:41.647Z,12.33
2022-11-05T22:25:08.703Z,12.13
2022-11-05T22:27:35.706Z,12.22
2022-11-05T22:30:05.927Z,12.25
2022-11-05T22:32:33.396Z,12.30
2022-11-05T22:35:06.592Z,12.18
2022-11-05T22:37:33.529Z,12.10
2022-11-05T22:40:12.485Z,12.27
2022-11-05T22:42:39.369Z,12.28
2022-11-05T22:45:07.367Z,12.04
2022-11-05T22:47:34.459Z,12.22
2022-11-05T22:50:01.612Z,11.94
2022-11-05T22:52:33.529Z,11.79
2022-11-05T22:55:09.771Z,12.11
2022-11-05T22:57:36.333Z,11.99
2022-11-05T23:00:19.973Z,12.06
2022-11-05T23:02:47.436Z,12.10
2022-11-05T23:05:17.054Z,12.04
2022-11-05T23:08:04.774Z,12.23
2022-11-05T23:10:50.416Z,12.31
2022-11-05T23:13:17.958Z,11.79
2022-11-05T23:16:06.090Z,12.12
2022-11-05T23:18:51.259Z,11.97
2022-11-05T23:21:36.940Z,12.13
2022-11-05T23:24:12.122Z,11.87
2022-11-05T23:26:51.880Z,11.98
2022-11-05T23:29:26.289Z,11.97
2022-11-05T23:32:12.013Z,11.05
2022-11-05T23:34:39.398Z,11.36
2022-11-05T23:37:24.660Z,12.07
2022-11-05T23:39:51.700Z,12.02
2022-11-05T23:42:40.627Z,11.94
2022-11-05T23:45:30.186Z,11.90
2022-11-05T23:48:16.112Z,11.85
2022-11-05T23:50:49.881Z,11.98
2022-11-05T23:53:19.822Z,11.81
2022-11-05T23:55:46.480Z,11.93
2022-11-05T23:58:16.598Z,11.88
